MCX4572 KMIA-KPNS
Flight info
| Callsign | MCX4572 |
|---|---|
| Flight time | 1h 26m |
| Altitude | 34000 |
| Route | HURCN4 SMELZ Q116 JAWJA CABLO DEFUN PENSI |
| Aircraft | CRJ7/M-SDFGIRWY/S |
Departure
| Time | 2026-04-25 22:47 |
|---|---|
| Airport | Miami International Airport (KMIA) |
Arrival
| Time | 2026-04-26 00:13 |
|---|---|
| Airport | Pensacola International Airport (KPNS) |
| Time | Latitude | Longitude | Altitude | Speed | Heading |
|---|---|---|---|---|---|
| 2026-04-25 22:11 | 25.79735 | -80.28711 | 13 ft | 0 kts | 140° |
| 2026-04-25 22:12 | 25.79731 | -80.28707 | 13 ft | 0 kts | 140° |
| 2026-04-25 22:39 | 25.79737 | -80.28712 | 13 ft | 4 kts | 146° |
| 2026-04-25 22:39 | 25.79756 | -80.28715 | 13 ft | 4 kts | 221° |
| 2026-04-25 22:39 | 25.79763 | -80.28694 | 13 ft | 1 kts | 264° |
| 2026-04-25 22:39 | 25.79763 | -80.28689 | 13 ft | 0 kts | 264° |
| 2026-04-25 22:40 | 25.79764 | -80.28689 | 13 ft | 0 kts | 264° |
| 2026-04-25 22:41 | 25.79763 | -80.28693 | 13 ft | 2 kts | 264° |
| 2026-04-25 22:41 | 25.79761 | -80.28714 | 13 ft | 4 kts | 264° |
| 2026-04-25 22:42 | 25.79759 | -80.28745 | 13 ft | 3 kts | 264° |
| 2026-04-25 22:42 | 25.79757 | -80.28780 | 13 ft | 6 kts | 280° |
| 2026-04-25 22:42 | 25.79794 | -80.28816 | 13 ft | 10 kts | 344° |
| 2026-04-25 22:42 | 25.79875 | -80.28824 | 13 ft | 12 kts | 357° |
| 2026-04-25 22:43 | 25.79962 | -80.28828 | 14 ft | 12 kts | 357° |
| 2026-04-25 22:43 | 25.80010 | -80.28890 | 14 ft | 12 kts | 270° |
| 2026-04-25 22:43 | 25.80008 | -80.28994 | 14 ft | 14 kts | 268° |
| 2026-04-25 22:43 | 25.80003 | -80.29107 | 14 ft | 15 kts | 267° |
| 2026-04-25 22:44 | 25.79997 | -80.29230 | 14 ft | 16 kts | 267° |
| 2026-04-25 22:44 | 25.79991 | -80.29361 | 13 ft | 18 kts | 267° |
| 2026-04-25 22:44 | 25.79984 | -80.29502 | 12 ft | 19 kts | 267° |
| 2026-04-25 22:44 | 25.79979 | -80.29624 | 12 ft | 15 kts | 267° |
| 2026-04-25 22:45 | 25.79978 | -80.29711 | 12 ft | 5 kts | 278° |
| 2026-04-25 22:45 | 25.79979 | -80.29716 | 12 ft | 0 kts | 280° |
| 2026-04-25 22:45 | 25.79980 | -80.29722 | 12 ft | 3 kts | 284° |
| 2026-04-25 22:45 | 25.80026 | -80.29762 | 12 ft | 15 kts | 1° |
| 2026-04-25 22:46 | 25.80092 | -80.29633 | 12 ft | 32 kts | 86° |
| 2026-04-25 22:46 | 25.80110 | -80.29177 | 15 ft | 85 kts | 88° |
| 2026-04-25 22:46 | 25.80144 | -80.28359 | 13 ft | 128 kts | 88° |
| 2026-04-25 22:46 | 25.80190 | -80.27288 | 153 ft | 148 kts | 89° |
| 2026-04-25 22:47 | 25.80228 | -80.26116 | 558 ft | 153 kts | 88° |
| 2026-04-25 22:47 | 25.80316 | -80.24931 | 989 ft | 155 kts | 87° |
| 2026-04-25 22:47 | 25.80385 | -80.23631 | 1284 ft | 180 kts | 90° |
| 2026-04-25 22:47 | 25.80420 | -80.22155 | 1683 ft | 203 kts | 90° |
| 2026-04-25 22:48 | 25.80460 | -80.20506 | 2215 ft | 223 kts | 89° |
| 2026-04-25 22:48 | 25.80520 | -80.18724 | 2824 ft | 239 kts | 85° |
| 2026-04-25 22:48 | 25.81139 | -80.16974 | 3419 ft | 254 kts | 48° |
| 2026-04-25 22:48 | 25.82632 | -80.15954 | 4211 ft | 257 kts | 14° |
| 2026-04-25 22:49 | 25.84413 | -80.15705 | 5063 ft | 258 kts | 1° |
| 2026-04-25 22:49 | 25.86220 | -80.15678 | 5903 ft | 260 kts | 359° |
| 2026-04-25 22:49 | 25.88046 | -80.15695 | 6687 ft | 263 kts | 358° |
| 2026-04-25 22:49 | 25.89878 | -80.15807 | 7426 ft | 265 kts | 348° |
| 2026-04-25 22:50 | 25.91666 | -80.16324 | 8175 ft | 267 kts | 341° |
| 2026-04-25 22:50 | 25.93409 | -80.16977 | 8907 ft | 269 kts | 339° |
| 2026-04-25 22:50 | 25.95190 | -80.17664 | 9677 ft | 272 kts | 339° |
| 2026-04-25 22:50 | 25.97015 | -80.18373 | 10111 ft | 288 kts | 338° |
| 2026-04-25 22:51 | 25.98758 | -80.19578 | 10325 ft | 307 kts | 311° |
| 2026-04-25 22:51 | 25.99933 | -80.21622 | 10656 ft | 323 kts | 295° |
| 2026-04-25 22:51 | 26.00818 | -80.23965 | 11177 ft | 332 kts | 290° |
| 2026-04-25 22:51 | 26.01621 | -80.26392 | 11894 ft | 335 kts | 290° |
| 2026-04-25 22:52 | 26.02421 | -80.28837 | 12608 ft | 338 kts | 290° |
| 2026-04-25 22:52 | 26.03245 | -80.31297 | 13311 ft | 341 kts | 291° |
| 2026-04-25 22:52 | 26.04110 | -80.33721 | 13989 ft | 343 kts | 291° |
| 2026-04-25 22:52 | 26.04713 | -80.35390 | 14408 ft | 345 kts | 291° |
| 2026-04-25 22:53 | 26.05909 | -80.38702 | 15246 ft | 350 kts | 291° |
| 2026-04-25 22:53 | 26.06818 | -80.41225 | 15867 ft | 352 kts | 291° |
| 2026-04-25 22:53 | 26.07734 | -80.43770 | 16465 ft | 355 kts | 291° |
| 2026-04-25 22:53 | 26.08654 | -80.46330 | 17038 ft | 358 kts | 291° |
| 2026-04-25 22:54 | 26.09583 | -80.48913 | 17597 ft | 362 kts | 291° |
| 2026-04-25 22:54 | 26.10521 | -80.51522 | 18150 ft | 364 kts | 291° |
| 2026-04-25 22:54 | 26.11465 | -80.54150 | 18626 ft | 367 kts | 291° |
| 2026-04-25 22:54 | 26.12473 | -80.56772 | 19082 ft | 370 kts | 299° |
| 2026-04-25 22:55 | 26.14184 | -80.58911 | 19539 ft | 375 kts | 320° |
| 2026-04-25 22:55 | 26.16342 | -80.60564 | 20004 ft | 379 kts | 327° |
| 2026-04-25 22:55 | 26.18723 | -80.61876 | 20480 ft | 383 kts | 334° |
| 2026-04-25 22:55 | 26.21209 | -80.62999 | 20909 ft | 386 kts | 336° |
| 2026-04-25 22:56 | 26.23722 | -80.64094 | 21339 ft | 389 kts | 336° |
| 2026-04-25 22:56 | 26.26240 | -80.65217 | 21748 ft | 391 kts | 335° |
| 2026-04-25 22:56 | 26.28719 | -80.66394 | 22158 ft | 393 kts | 334° |
| 2026-04-25 22:56 | 26.31238 | -80.67609 | 22562 ft | 395 kts | 334° |
| 2026-04-25 22:57 | 26.33769 | -80.68825 | 22952 ft | 398 kts | 334° |
| 2026-04-25 22:57 | 26.36317 | -80.70047 | 23333 ft | 400 kts | 334° |
| 2026-04-25 22:57 | 26.38881 | -80.71286 | 23677 ft | 401 kts | 332° |
| 2026-04-25 22:57 | 26.41174 | -80.73042 | 24001 ft | 398 kts | 317° |
| 2026-04-25 22:58 | 26.43158 | -80.75200 | 24358 ft | 398 kts | 311° |
| 2026-04-25 22:58 | 26.45004 | -80.77503 | 24706 ft | 398 kts | 310° |
| 2026-04-25 22:58 | 26.46831 | -80.79837 | 25029 ft | 400 kts | 310° |
| 2026-04-25 22:58 | 26.48648 | -80.82141 | 25345 ft | 401 kts | 310° |
| 2026-04-25 22:59 | 26.50528 | -80.84443 | 25666 ft | 402 kts | 311° |
| 2026-04-25 22:59 | 26.52425 | -80.86740 | 25969 ft | 403 kts | 311° |
| 2026-04-25 22:59 | 26.54330 | -80.89037 | 26261 ft | 404 kts | 311° |
| 2026-04-25 22:59 | 26.56239 | -80.91352 | 26539 ft | 405 kts | 311° |
| 2026-04-25 23:00 | 26.58149 | -80.93668 | 26818 ft | 406 kts | 311° |
| 2026-04-25 23:00 | 26.60062 | -80.95988 | 27086 ft | 406 kts | 311° |
| 2026-04-25 23:00 | 26.61980 | -80.98316 | 27357 ft | 407 kts | 311° |
| 2026-04-25 23:00 | 26.63905 | -81.00655 | 27614 ft | 409 kts | 311° |
| 2026-04-25 23:01 | 26.65832 | -81.02994 | 27874 ft | 409 kts | 311° |
| 2026-04-25 23:01 | 26.67762 | -81.05340 | 28128 ft | 410 kts | 311° |
| 2026-04-25 23:01 | 26.69697 | -81.07694 | 28387 ft | 411 kts | 311° |
| 2026-04-25 23:01 | 26.71639 | -81.10053 | 28624 ft | 412 kts | 311° |
| 2026-04-25 23:02 | 26.73582 | -81.12421 | 28869 ft | 413 kts | 311° |
| 2026-04-25 23:02 | 26.75514 | -81.14774 | 29391 ft | 406 kts | 311° |
| 2026-04-25 23:02 | 26.77416 | -81.17091 | 29830 ft | 403 kts | 311° |
| 2026-04-25 23:02 | 26.79310 | -81.19399 | 30111 ft | 401 kts | 311° |
| 2026-04-25 23:03 | 26.81192 | -81.21698 | 30390 ft | 400 kts | 311° |
| 2026-04-25 23:03 | 26.83043 | -81.23957 | 30626 ft | 399 kts | 311° |
| 2026-04-25 23:03 | 26.84913 | -81.26241 | 30863 ft | 397 kts | 311° |
| 2026-04-25 23:03 | 26.86779 | -81.28520 | 31087 ft | 397 kts | 311° |
| 2026-04-25 23:04 | 26.88644 | -81.30801 | 31284 ft | 396 kts | 311° |
| 2026-04-25 23:04 | 26.89900 | -81.32338 | 31423 ft | 396 kts | 311° |
| 2026-04-25 23:04 | 26.92362 | -81.35345 | 31716 ft | 395 kts | 311° |
| 2026-04-25 23:04 | 26.94215 | -81.37615 | 31926 ft | 394 kts | 311° |
| 2026-04-25 23:05 | 26.96069 | -81.39887 | 32104 ft | 394 kts | 311° |
| 2026-04-25 23:05 | 26.97912 | -81.42146 | 32355 ft | 392 kts | 311° |
| 2026-04-25 23:05 | 26.99748 | -81.44398 | 32600 ft | 390 kts | 311° |
| 2026-04-25 23:05 | 27.01574 | -81.46638 | 32853 ft | 387 kts | 311° |
| 2026-04-25 23:06 | 27.03399 | -81.48843 | 33108 ft | 385 kts | 314° |
| 2026-04-25 23:06 | 27.05428 | -81.50795 | 33379 ft | 384 kts | 320° |
| 2026-04-25 23:06 | 27.07563 | -81.52576 | 33632 ft | 381 kts | 322° |
| 2026-04-25 23:06 | 27.09745 | -81.54268 | 33790 ft | 382 kts | 323° |
| 2026-04-25 23:07 | 27.14245 | -81.57519 | 33888 ft | 387 kts | 324° |
| 2026-04-25 23:07 | 27.18772 | -81.60780 | 33910 ft | 391 kts | 324° |
| 2026-04-25 23:08 | 27.23365 | -81.64107 | 33924 ft | 394 kts | 324° |
| 2026-04-25 23:08 | 27.28007 | -81.67463 | 33929 ft | 399 kts | 324° |
| 2026-04-25 23:09 | 27.32695 | -81.70858 | 33930 ft | 402 kts | 324° |
| 2026-04-25 23:09 | 27.37429 | -81.74290 | 33926 ft | 406 kts | 324° |
| 2026-04-25 23:10 | 27.42198 | -81.77745 | 33930 ft | 409 kts | 324° |
| 2026-04-25 23:10 | 27.47088 | -81.81011 | 33927 ft | 414 kts | 330° |
| 2026-04-25 23:11 | 27.52397 | -81.83644 | 33929 ft | 419 kts | 334° |
| 2026-04-25 23:11 | 27.57808 | -81.86153 | 33930 ft | 421 kts | 333° |
| 2026-04-25 23:12 | 27.63203 | -81.88781 | 33925 ft | 423 kts | 333° |
| 2026-04-25 23:12 | 27.68630 | -81.91430 | 33923 ft | 426 kts | 333° |
| 2026-04-25 23:13 | 27.74054 | -81.94080 | 33926 ft | 428 kts | 333° |
| 2026-04-25 23:13 | 27.79531 | -81.96762 | 33917 ft | 430 kts | 333° |
| 2026-04-25 23:14 | 27.85045 | -81.99459 | 33913 ft | 432 kts | 333° |
| 2026-04-25 23:14 | 27.90496 | -82.02133 | 33911 ft | 434 kts | 333° |
| 2026-04-25 23:15 | 27.96046 | -82.04859 | 33905 ft | 435 kts | 333° |
| 2026-04-25 23:15 | 28.01619 | -82.07598 | 33907 ft | 436 kts | 333° |
| 2026-04-25 23:16 | 28.07133 | -82.10393 | 33907 ft | 435 kts | 329° |
| 2026-04-25 23:16 | 28.12285 | -82.13980 | 33913 ft | 434 kts | 323° |
| 2026-04-25 23:17 | 28.17185 | -82.17984 | 33914 ft | 434 kts | 321° |
| 2026-04-25 23:17 | 28.22104 | -82.21992 | 33916 ft | 435 kts | 322° |
| 2026-04-25 23:18 | 28.26228 | -82.25290 | 33914 ft | 436 kts | 322° |
| 2026-04-25 23:18 | 28.31193 | -82.29264 | 33917 ft | 437 kts | 322° |
| 2026-04-25 23:19 | 28.36166 | -82.33248 | 33911 ft | 438 kts | 322° |
| 2026-04-25 23:19 | 28.41954 | -82.37890 | 33910 ft | 439 kts | 322° |
| 2026-04-25 23:20 | 28.46105 | -82.41223 | 33905 ft | 439 kts | 322° |
| 2026-04-25 23:20 | 28.51095 | -82.45235 | 33905 ft | 440 kts | 322° |
| 2026-04-25 23:21 | 28.56102 | -82.49264 | 33905 ft | 440 kts | 322° |
| 2026-04-25 23:21 | 28.61106 | -82.53292 | 33914 ft | 441 kts | 322° |
| 2026-04-25 23:22 | 28.66118 | -82.57337 | 33920 ft | 441 kts | 322° |
| 2026-04-25 23:23 | 28.73640 | -82.63414 | 33914 ft | 442 kts | 322° |
| 2026-04-25 23:23 | 28.78634 | -82.67451 | 33915 ft | 443 kts | 322° |
| 2026-04-25 23:24 | 28.83654 | -82.71521 | 33914 ft | 443 kts | 322° |
| 2026-04-25 23:24 | 28.88684 | -82.75600 | 33916 ft | 443 kts | 322° |
| 2026-04-25 23:25 | 28.93711 | -82.79683 | 33913 ft | 444 kts | 322° |
| 2026-04-25 23:25 | 28.98747 | -82.83776 | 33914 ft | 444 kts | 322° |
| 2026-04-25 23:26 | 29.03782 | -82.87875 | 33918 ft | 444 kts | 322° |
| 2026-04-25 23:26 | 29.08788 | -82.91958 | 33918 ft | 445 kts | 322° |
| 2026-04-25 23:27 | 29.13836 | -82.96067 | 33916 ft | 445 kts | 322° |
| 2026-04-25 23:27 | 29.18881 | -83.00195 | 33917 ft | 446 kts | 322° |
| 2026-04-25 23:28 | 29.23928 | -83.04324 | 33916 ft | 446 kts | 322° |
| 2026-04-25 23:28 | 29.28976 | -83.08459 | 33918 ft | 446 kts | 322° |
| 2026-04-25 23:29 | 29.34038 | -83.12603 | 33909 ft | 447 kts | 322° |
| 2026-04-25 23:29 | 29.39061 | -83.16734 | 33904 ft | 447 kts | 322° |
| 2026-04-25 23:30 | 29.44120 | -83.20892 | 33901 ft | 447 kts | 322° |
| 2026-04-25 23:30 | 29.49180 | -83.25060 | 33899 ft | 448 kts | 322° |
| 2026-04-25 23:31 | 29.54250 | -83.29236 | 33898 ft | 448 kts | 322° |
| 2026-04-25 23:31 | 29.59322 | -83.33423 | 33899 ft | 448 kts | 322° |
| 2026-04-25 23:32 | 29.64400 | -83.37619 | 33902 ft | 449 kts | 322° |
| 2026-04-25 23:32 | 29.69440 | -83.41787 | 33908 ft | 449 kts | 322° |
| 2026-04-25 23:33 | 29.74514 | -83.45990 | 33909 ft | 449 kts | 322° |
| 2026-04-25 23:33 | 29.79594 | -83.50204 | 33914 ft | 450 kts | 321° |
| 2026-04-25 23:34 | 29.84683 | -83.54432 | 33916 ft | 450 kts | 321° |
| 2026-04-25 23:34 | 29.89729 | -83.58619 | 33915 ft | 450 kts | 322° |
| 2026-04-25 23:35 | 29.94811 | -83.62850 | 33916 ft | 451 kts | 321° |
| 2026-04-25 23:35 | 29.99901 | -83.67091 | 33917 ft | 451 kts | 321° |
| 2026-04-25 23:36 | 30.04991 | -83.71339 | 33916 ft | 451 kts | 321° |
| 2026-04-25 23:36 | 30.10081 | -83.75589 | 33913 ft | 451 kts | 321° |
| 2026-04-25 23:37 | 30.15010 | -83.79986 | 33914 ft | 448 kts | 313° |
| 2026-04-25 23:37 | 30.19201 | -83.85246 | 33915 ft | 447 kts | 309° |
| 2026-04-25 23:38 | 30.23044 | -83.90891 | 33911 ft | 446 kts | 302° |
| 2026-04-25 23:38 | 30.26443 | -83.96905 | 33903 ft | 446 kts | 302° |
| 2026-04-25 23:39 | 30.29900 | -84.02828 | 33902 ft | 447 kts | 303° |
| 2026-04-25 23:39 | 30.33413 | -84.08777 | 33895 ft | 448 kts | 303° |
| 2026-04-25 23:40 | 30.36937 | -84.14747 | 33896 ft | 448 kts | 303° |
| 2026-04-25 23:40 | 30.40454 | -84.20716 | 33895 ft | 449 kts | 303° |
| 2026-04-25 23:41 | 30.43979 | -84.26706 | 33900 ft | 449 kts | 303° |
| 2026-04-25 23:41 | 30.47504 | -84.32705 | 33899 ft | 450 kts | 302° |
| 2026-04-25 23:42 | 30.51006 | -84.38675 | 33897 ft | 451 kts | 302° |
| 2026-04-25 23:42 | 30.54535 | -84.44702 | 33895 ft | 451 kts | 302° |
| 2026-04-25 23:43 | 30.58061 | -84.50726 | 33896 ft | 451 kts | 302° |
| 2026-04-25 23:43 | 30.61563 | -84.56726 | 33897 ft | 452 kts | 302° |
| 2026-04-25 23:44 | 30.65082 | -84.62757 | 33887 ft | 452 kts | 302° |
| 2026-04-25 23:44 | 30.68615 | -84.68828 | 33888 ft | 452 kts | 302° |
| 2026-04-25 23:45 | 30.72139 | -84.74889 | 33888 ft | 453 kts | 302° |
| 2026-04-25 23:45 | 30.75003 | -84.81342 | 33897 ft | 449 kts | 285° |
| 2026-04-25 23:46 | 30.76621 | -84.88359 | 33886 ft | 449 kts | 284° |
| 2026-04-25 23:46 | 30.78026 | -84.95448 | 33883 ft | 449 kts | 276° |
| 2026-04-25 23:47 | 30.78215 | -85.02653 | 33882 ft | 449 kts | 270° |
| 2026-04-25 23:47 | 30.78306 | -85.09912 | 33880 ft | 449 kts | 272° |
| 2026-04-25 23:48 | 30.78573 | -85.17172 | 33876 ft | 449 kts | 272° |
| 2026-04-25 23:48 | 30.78805 | -85.24339 | 33879 ft | 437 kts | 273° |
| 2026-04-25 23:49 | 30.79029 | -85.31334 | 33867 ft | 428 kts | 273° |
| 2026-04-25 23:49 | 30.79246 | -85.38175 | 33867 ft | 419 kts | 273° |
| 2026-04-25 23:50 | 30.79452 | -85.44846 | 33882 ft | 411 kts | 273° |
| 2026-04-25 23:50 | 30.79554 | -85.48165 | 33666 ft | 412 kts | 273° |
| 2026-04-25 23:50 | 30.79655 | -85.51469 | 33112 ft | 404 kts | 273° |
| 2026-04-25 23:50 | 30.79752 | -85.54710 | 32561 ft | 397 kts | 274° |
| 2026-04-25 23:51 | 30.79848 | -85.57900 | 32021 ft | 391 kts | 274° |
| 2026-04-25 23:51 | 30.79942 | -85.61040 | 31493 ft | 386 kts | 274° |
| 2026-04-25 23:51 | 30.80031 | -85.64098 | 30984 ft | 380 kts | 274° |
| 2026-04-25 23:51 | 30.80122 | -85.67156 | 30475 ft | 376 kts | 274° |
| 2026-04-25 23:52 | 30.80208 | -85.70178 | 29993 ft | 375 kts | 274° |
| 2026-04-25 23:52 | 30.80295 | -85.73215 | 29443 ft | 377 kts | 274° |
| 2026-04-25 23:52 | 30.80383 | -85.76276 | 28899 ft | 379 kts | 274° |
| 2026-04-25 23:52 | 30.80472 | -85.79359 | 28368 ft | 382 kts | 274° |
| 2026-04-25 23:53 | 30.80558 | -85.82453 | 27846 ft | 384 kts | 274° |
| 2026-04-25 23:53 | 30.80645 | -85.85565 | 27326 ft | 386 kts | 274° |
| 2026-04-25 23:53 | 30.80732 | -85.88687 | 26837 ft | 387 kts | 274° |
| 2026-04-25 23:53 | 30.80817 | -85.91828 | 26345 ft | 389 kts | 274° |
| 2026-04-25 23:54 | 30.80905 | -85.94977 | 25863 ft | 390 kts | 273° |
| 2026-04-25 23:54 | 30.80988 | -85.98143 | 25390 ft | 392 kts | 273° |
| 2026-04-25 23:54 | 30.81075 | -86.01308 | 24930 ft | 391 kts | 273° |
| 2026-04-25 23:54 | 30.81157 | -86.04470 | 24472 ft | 390 kts | 273° |
| 2026-04-25 23:55 | 30.81240 | -86.07618 | 24020 ft | 388 kts | 273° |
| 2026-04-25 23:55 | 30.81318 | -86.10710 | 23582 ft | 386 kts | 273° |
| 2026-04-25 23:55 | 30.81386 | -86.13806 | 23079 ft | 379 kts | 273° |
| 2026-04-25 23:55 | 30.81412 | -86.16849 | 22554 ft | 373 kts | 271° |
| 2026-04-25 23:56 | 30.81371 | -86.19851 | 22033 ft | 368 kts | 270° |
| 2026-04-25 23:56 | 30.81322 | -86.22807 | 21525 ft | 363 kts | 270° |
| 2026-04-25 23:56 | 30.81278 | -86.25735 | 21028 ft | 360 kts | 270° |
| 2026-04-25 23:56 | 30.81236 | -86.28628 | 20536 ft | 356 kts | 270° |
| 2026-04-25 23:57 | 30.81194 | -86.31501 | 20051 ft | 353 kts | 271° |
| 2026-04-25 23:57 | 30.81150 | -86.34351 | 19578 ft | 351 kts | 270° |
| 2026-04-25 23:57 | 30.81105 | -86.37184 | 19110 ft | 348 kts | 270° |
| 2026-04-25 23:57 | 30.81061 | -86.39958 | 18660 ft | 346 kts | 270° |
| 2026-04-25 23:58 | 30.81015 | -86.42749 | 18202 ft | 344 kts | 271° |
| 2026-04-25 23:58 | 30.80970 | -86.45526 | 17681 ft | 342 kts | 271° |
| 2026-04-25 23:58 | 30.80924 | -86.48284 | 17164 ft | 340 kts | 270° |
| 2026-04-25 23:58 | 30.80879 | -86.51028 | 16663 ft | 338 kts | 270° |
| 2026-04-25 23:59 | 30.80832 | -86.53759 | 16162 ft | 336 kts | 270° |
| 2026-04-25 23:59 | 30.80785 | -86.56471 | 15675 ft | 334 kts | 270° |
| 2026-04-25 23:59 | 30.80737 | -86.59167 | 15194 ft | 332 kts | 270° |
| 2026-04-25 23:59 | 30.80690 | -86.61848 | 14722 ft | 330 kts | 270° |
| 2026-04-26 00:00 | 30.80644 | -86.64471 | 14261 ft | 328 kts | 270° |
| 2026-04-26 00:00 | 30.80595 | -86.67110 | 13799 ft | 326 kts | 270° |
| 2026-04-26 00:00 | 30.80548 | -86.69732 | 13290 ft | 323 kts | 270° |
| 2026-04-26 00:00 | 30.80499 | -86.72342 | 12774 ft | 321 kts | 270° |
| 2026-04-26 00:01 | 30.80452 | -86.74929 | 12272 ft | 319 kts | 270° |
| 2026-04-26 00:01 | 30.80402 | -86.77508 | 11772 ft | 317 kts | 270° |
| 2026-04-26 00:01 | 30.80355 | -86.80067 | 11275 ft | 315 kts | 270° |
| 2026-04-26 00:01 | 30.80309 | -86.82533 | 10806 ft | 313 kts | 270° |
| 2026-04-26 00:02 | 30.80255 | -86.85057 | 10332 ft | 311 kts | 270° |
| 2026-04-26 00:02 | 30.80207 | -86.87510 | 10243 ft | 291 kts | 270° |
| 2026-04-26 00:02 | 30.80164 | -86.89762 | 10233 ft | 267 kts | 270° |
| 2026-04-26 00:02 | 30.80116 | -86.91885 | 9898 ft | 259 kts | 269° |
| 2026-04-26 00:03 | 30.80064 | -86.93958 | 9519 ft | 253 kts | 270° |
| 2026-04-26 00:03 | 30.80020 | -86.95981 | 9147 ft | 247 kts | 270° |
| 2026-04-26 00:03 | 30.79983 | -86.97942 | 8786 ft | 244 kts | 270° |
| 2026-04-26 00:03 | 30.79944 | -86.99917 | 8427 ft | 243 kts | 270° |
| 2026-04-26 00:04 | 30.79905 | -87.01874 | 8083 ft | 241 kts | 270° |
| 2026-04-26 00:04 | 30.79861 | -87.03817 | 7739 ft | 240 kts | 270° |
| 2026-04-26 00:04 | 30.79819 | -87.05747 | 7399 ft | 238 kts | 270° |
| 2026-04-26 00:04 | 30.79781 | -87.07667 | 7062 ft | 236 kts | 270° |
| 2026-04-26 00:05 | 30.79743 | -87.09573 | 6726 ft | 236 kts | 270° |
| 2026-04-26 00:05 | 30.79701 | -87.11538 | 6400 ft | 250 kts | 270° |
| 2026-04-26 00:05 | 30.79655 | -87.13551 | 6073 ft | 251 kts | 270° |
| 2026-04-26 00:05 | 30.79598 | -87.15570 | 5728 ft | 248 kts | 269° |
| 2026-04-26 00:06 | 30.79542 | -87.17560 | 5462 ft | 244 kts | 269° |
| 2026-04-26 00:06 | 30.79494 | -87.19517 | 5191 ft | 240 kts | 270° |
| 2026-04-26 00:06 | 30.79453 | -87.21451 | 4922 ft | 237 kts | 270° |
| 2026-04-26 00:06 | 30.79357 | -87.23354 | 4648 ft | 235 kts | 258° |
| 2026-04-26 00:07 | 30.78497 | -87.24931 | 4416 ft | 233 kts | 220° |
| 2026-04-26 00:07 | 30.77034 | -87.25610 | 4181 ft | 222 kts | 197° |
| 2026-04-26 00:07 | 30.76059 | -87.25899 | 4024 ft | 214 kts | 196° |
| 2026-04-26 00:07 | 30.74089 | -87.26175 | 3707 ft | 222 kts | 173° |
| 2026-04-26 00:08 | 30.72587 | -87.25754 | 3466 ft | 228 kts | 167° |
| 2026-04-26 00:08 | 30.71046 | -87.25262 | 3229 ft | 229 kts | 166° |
| 2026-04-26 00:08 | 30.70010 | -87.24933 | 3062 ft | 227 kts | 167° |
| 2026-04-26 00:08 | 30.68007 | -87.24329 | 2705 ft | 223 kts | 168° |
| 2026-04-26 00:09 | 30.67012 | -87.24044 | 2526 ft | 221 kts | 168° |
| 2026-04-26 00:09 | 30.65529 | -87.23636 | 2271 ft | 218 kts | 169° |
| 2026-04-26 00:09 | 30.64058 | -87.23254 | 2003 ft | 215 kts | 169° |
| 2026-04-26 00:09 | 30.62614 | -87.22884 | 1839 ft | 209 kts | 169° |
| 2026-04-26 00:10 | 30.61244 | -87.22526 | 1777 ft | 190 kts | 169° |
| 2026-04-26 00:10 | 30.60047 | -87.22209 | 1722 ft | 170 kts | 169° |
| 2026-04-26 00:10 | 30.58895 | -87.21909 | 1723 ft | 169 kts | 169° |
| 2026-04-26 00:10 | 30.57762 | -87.21610 | 1694 ft | 166 kts | 170° |
| 2026-04-26 00:11 | 30.56641 | -87.21305 | 1690 ft | 161 kts | 170° |
| 2026-04-26 00:11 | 30.55577 | -87.21015 | 1607 ft | 156 kts | 170° |
| 2026-04-26 00:11 | 30.54516 | -87.20731 | 1367 ft | 157 kts | 170° |
| 2026-04-26 00:11 | 30.53451 | -87.20445 | 1143 ft | 157 kts | 170° |
| 2026-04-26 00:12 | 30.52390 | -87.20171 | 935 ft | 155 kts | 170° |
| 2026-04-26 00:12 | 30.51367 | -87.19897 | 782 ft | 151 kts | 167° |
| 2026-04-26 00:12 | 30.50346 | -87.19626 | 600 ft | 151 kts | 166° |
| 2026-04-26 00:12 | 30.49359 | -87.19358 | 355 ft | 139 kts | 165° |
| 2026-04-26 00:13 | 30.48415 | -87.19096 | 181 ft | 139 kts | 165° |
| 2026-04-26 00:13 | 30.47530 | -87.18862 | 125 ft | 112 kts | 166° |
| 2026-04-26 00:13 | 30.46943 | -87.18702 | 125 ft | 47 kts | 166° |
| 2026-04-26 00:13 | 30.46763 | -87.18650 | 125 ft | 15 kts | 170° |
| 2026-04-26 00:14 | 30.46680 | -87.18694 | 126 ft | 13 kts | 250° |
| 2026-04-26 00:14 | 30.46677 | -87.18772 | 125 ft | 9 kts | 293° |
| 2026-04-26 00:14 | 30.46732 | -87.18810 | 126 ft | 11 kts | 347° |
| 2026-04-26 00:14 | 30.46817 | -87.18832 | 126 ft | 13 kts | 347° |
| 2026-04-26 00:15 | 30.46912 | -87.18857 | 125 ft | 15 kts | 347° |
| 2026-04-26 00:15 | 30.47019 | -87.18886 | 123 ft | 16 kts | 347° |
| 2026-04-26 00:15 | 30.47135 | -87.18917 | 125 ft | 18 kts | 347° |
| 2026-04-26 00:15 | 30.47257 | -87.18950 | 123 ft | 17 kts | 347° |
| 2026-04-26 00:16 | 30.47364 | -87.18979 | 123 ft | 14 kts | 345° |
| 2026-04-26 00:16 | 30.47416 | -87.19051 | 125 ft | 10 kts | 301° |
| 2026-04-26 00:16 | 30.47422 | -87.19124 | 126 ft | 11 kts | 251° |
| 2026-04-26 00:16 | 30.47401 | -87.19218 | 127 ft | 11 kts | 267° |
| 2026-04-26 00:17 | 30.47422 | -87.19292 | 127 ft | 10 kts | 315° |
| 2026-04-26 00:17 | 30.47467 | -87.19289 | 127 ft | 6 kts | 27° |
| 2026-04-26 00:17 | 30.47487 | -87.19278 | 125 ft | 0 kts | 27° |